Time;durP1;ratioP1;P1;durP2;ratioP2;P2;SDS_P1;SDS_P2;PMS_P1;PMS_P2;Temp;Humidity;BMP_temperature;BMP_pressure;BME280_temperature;BME280_humidity;BME280_pressure;Samples;Min_cycle;Max_cycle;Signal;HPM_P1;HPM_P2
2021/06/08 00:01:34;;;;;;;;;;;;;;;;;;3557651;27;19927;-41
2021/06/08 00:03:15;;;;;;;;;;;;;;;;;;3554880;27;20017;-41
2021/06/08 00:04:56;;;;;;;;;;;;;;;;;;3555844;27;19973;-41
2021/06/08 00:06:37;;;;;;;;;;;;;;;;;;3554890;27;20010;-41
2021/06/08 00:08:18;;;;;;;;;;;;;;;;;;3557641;27;19970;-41
2021/06/08 00:09:59;;;;;;;;;;;;;;;;;;3556994;27;19927;-45
2021/06/08 00:11:40;;;;;;;;;;;;;;;;;;3556535;27;20299;-45
2021/06/08 00:13:21;;;;;;;;;;;;;;;;;;3555157;27;20415;-45
2021/06/08 00:15:02;;;;;;;;;;;;;;;;;;3554840;27;19969;-45
2021/06/08 00:16:43;;;;;;;;;;;;;;;;;;3557123;27;20491;-47
2021/06/08 00:18:24;;;;;;;;;;;;;;;;;;3554986;27;19954;-46
2021/06/08 00:20:05;;;;;;;;;;;;;;;;;;3557079;27;20004;-45
2021/06/08 00:21:46;;;;;;;;;;;;;;;;;;3556231;27;19931;-45
2021/06/08 00:23:27;;;;;;;;;;;;;;;;;;3555615;27;19927;-45
2021/06/08 00:25:08;;;;;;;;;;;;;;;;;;3557246;27;19954;-46
2021/06/08 00:26:48;;;;;;;;;;;;;;;;;;3554345;27;19934;-46
2021/06/08 00:28:29;;;;;;;;;;;;;;;;;;3554693;27;19931;-46
2021/06/08 00:30:10;;;;;;;;;;;;;;;;;;3554428;27;19938;-45
2021/06/08 00:31:51;;;;;;;;;;;;;;;;;;3555460;27;19927;-45
2021/06/08 00:33:32;;;;;;;;;;;;;;;;;;3555305;27;19927;-45
2021/06/08 00:35:13;;;;;;;;;;;;;;;;;;3555429;27;19956;-42
2021/06/08 00:36:54;;;;;;;;;;;;;;;;;;3556063;27;20450;-41
2021/06/08 00:38:34;;;;;;;;;;;;;;;;;;3554226;27;20018;-41
2021/06/08 00:40:15;;;;;;;;;;;;;;;;;;3555660;27;20418;-41
2021/06/08 00:41:56;;;;;;;;;;;;;;;;;;3554342;27;19931;-41
2021/06/08 00:43:37;;;;;;;;;;;;;;;;;;3556018;27;19977;-41
2021/06/08 00:45:18;;;;;;;;;;;;;;;;;;3554076;27;19973;-41
2021/06/08 00:46:59;;;;;;;;;;;;;;;;;;3555879;27;20029;-41
2021/06/08 00:48:40;;;;;;;;;;;;;;;;;;3557358;27;19934;-41
2021/06/08 00:50:21;;;;;;;;;;;;;;;;;;3554378;27;20348;-41
2021/06/08 00:52:02;;;;;;;;;;;;;;;;;;3555885;27;20025;-41
2021/06/08 00:53:43;;;;;;;;;;;;;;;;;;3554374;27;19959;-41
2021/06/08 00:55:24;;;;;;;;;;;;;;;;;;3557182;27;19934;-41
2021/06/08 00:57:04;;;;;;;;;;;;;;;;;;3554206;27;19940;-41
2021/06/08 00:58:45;;;;;;;;;;;;;;;;;;3556759;27;19938;-41
2021/06/08 01:00:28;;;;;;;;;;;;;;;;;;3556493;27;20319;-41
2021/06/08 01:02:09;;;;;;;;;;;;;;;;;;3554335;27;19979;-42
2021/06/08 01:03:50;;;;;;;;;;;;;;;;;;3555560;27;19930;-41
2021/06/08 01:05:31;;;;;;;;;;;;;;;;;;3554389;27;20434;-46
2021/06/08 01:07:12;;;;;;;;;;;;;;;;;;3556781;27;19927;-45
2021/06/08 01:08:52;;;;;;;;;;;;;;;;;;3554409;27;20003;-46
2021/06/08 01:10:33;;;;;;;;;;;;;;;;;;3556904;27;19927;-45
2021/06/08 01:12:15;;;;;;;;;;;;;;;;;;3556051;27;20022;-45
2021/06/08 01:13:56;;;;;;;;;;;;;;;;;;3561331;27;19991;-45
2021/06/08 01:15:36;;;;;;;;;;;;;;;;;;3564141;27;19931;-45
2021/06/08 01:17:17;;;;;;;;;;;;;;;;;;3554051;27;20075;-45
2021/06/08 01:18:58;;;;;;;;;;;;;;;;;;3556491;27;20131;-45
2021/06/08 01:20:39;;;;;;;;;;;;;;;;;;3554000;27;19927;-45
2021/06/08 01:22:20;;;;;;;;;;;;;;;;;;3556602;27;19977;-45
2021/06/08 01:24:02;;;;;;;;;;;;;;;;;;3553788;27;20021;-46
2021/06/08 01:25:43;;;;;;;;;;;;;;;;;;3555140;27;19983;-45
2021/06/08 01:27:24;;;;;;;;;;;;;;;;;;3556840;27;20399;-45
2021/06/08 01:29:05;;;;;;;;;;;;;;;;;;3553890;27;19927;-45
2021/06/08 01:30:46;;;;;;;;;;;;;;;;;;3555257;27;20400;-44
2021/06/08 01:32:26;;;;;;;;;;;;;;;;;;3554010;27;20022;-44
2021/06/08 01:34:07;;;;;;;;;;;;;;;;;;3556483;27;20410;-45
2021/06/08 01:35:48;;;;;;;;;;;;;;;;;;3557539;27;20423;-41
2021/06/08 01:37:29;;;;;;;;;;;;;;;;;;3554832;27;19996;-41
2021/06/08 01:39:10;;;;;;;;;;;;;;;;;;3556466;27;20002;-40
2021/06/08 01:40:51;;;;;;;;;;;;;;;;;;3553272;27;19927;-40
2021/06/08 01:42:32;;;;;;;;;;;;;;;;;;3554900;27;20284;-40
2021/06/08 01:44:13;;;;;;;;;;;;;;;;;;3553871;27;19927;-41
2021/06/08 01:45:54;;;;;;;;;;;;;;;;;;3556220;27;20390;-40
2021/06/08 01:47:35;;;;;;;;;;;;;;;;;;3553821;27;19927;-40
2021/06/08 01:49:16;;;;;;;;;;;;;;;;;;3556489;27;19967;-40
2021/06/08 01:50:56;;;;;;;;;;;;;;;;;;3555441;27;19935;-40
2021/06/08 01:52:37;;;;;;;;;;;;;;;;;;3553150;27;19972;-40
2021/06/08 01:54:18;;;;;;;;;;;;;;;;;;3556502;27;19927;-40
2021/06/08 01:55:59;;;;;;;;;;;;;;;;;;3553739;27;20438;-40
2021/06/08 01:57:40;;;;;;;;;;;;;;;;;;3556019;27;20101;-40
2021/06/08 01:59:21;;;;;;;;;;;;;;;;;;3553752;27;20009;-40
2021/06/08 02:01:02;;;;;;;;;;;;;;;;;;3555895;27;20471;-40
2021/06/08 02:02:43;;;;;;;;;;;;;;;;;;3553929;27;19927;-40
2021/06/08 02:04:23;;;;;;;;;;;;;;;;;;3553242;27;19927;-40
2021/06/08 02:06:04;;;;;;;;;;;;;;;;;;3554709;27;19926;-41
2021/06/08 02:07:45;;;;;;;;;;;;;;;;;;3553377;27;19927;-41
2021/06/08 02:09:27;;;;;;;;;;;;;;;;;;3556676;27;19926;-45
2021/06/08 02:11:07;;;;;;;;;;;;;;;;;;3553375;27;19967;-45
2021/06/08 02:12:48;;;;;;;;;;;;;;;;;;3556083;27;19971;-45
2021/06/08 02:14:29;;;;;;;;;;;;;;;;;;3564472;27;20037;-45
2021/06/08 02:16:10;;;;;;;;;;;;;;;;;;3554809;27;19934;-40
2021/06/08 02:17:51;;;;;;;;;;;;;;;;;;3556231;27;20017;-40
2021/06/08 02:19:32;;;;;;;;;;;;;;;;;;3553408;27;19980;-40
2021/06/08 02:21:13;;;;;;;;;;;;;;;;;;3555971;27;19927;-41
2021/06/08 02:22:54;;;;;;;;;;;;;;;;;;3553552;27;20021;-40
2021/06/08 02:24:35;;;;;;;;;;;;;;;;;;3555849;27;19927;-41
2021/06/08 02:26:16;;;;;;;;;;;;;;;;;;3554152;27;19935;-41
2021/06/08 02:27:57;;;;;;;;;;;;;;;;;;3555161;27;19981;-42
2021/06/08 02:29:38;;;;;;;;;;;;;;;;;;3555189;27;20399;-44
2021/06/08 02:31:19;;;;;;;;;;;;;;;;;;3553068;27;19929;-43
2021/06/08 02:32:59;;;;;;;;;;;;;;;;;;3555553;27;19934;-43
2021/06/08 02:34:40;;;;;;;;;;;;;;;;;;3553480;27;20406;-44
2021/06/08 02:36:21;;;;;;;;;;;;;;;;;;3554955;27;19931;-45
2021/06/08 02:38:02;;;;;;;;;;;;;;;;;;3552945;27;20395;-47
2021/06/08 02:39:43;;;;;;;;;;;;;;;;;;3555695;27;19927;-46
2021/06/08 02:41:24;;;;;;;;;;;;;;;;;;3554943;27;20449;-46
2021/06/08 02:43:05;;;;;;;;;;;;;;;;;;3553021;27;19938;-45
2021/06/08 02:44:46;;;;;;;;;;;;;;;;;;3555631;27;20391;-45
2021/06/08 02:46:27;;;;;;;;;;;;;;;;;;3553392;27;19962;-45
2021/06/08 02:48:08;;;;;;;;;;;;;;;;;;3554539;27;19927;-45
2021/06/08 02:49:49;;;;;;;;;;;;;;;;;;3553299;27;19927;-46
2021/06/08 02:51:30;;;;;;;;;;;;;;;;;;3554867;27;20425;-44
2021/06/08 02:53:11;;;;;;;;;;;;;;;;;;3555287;27;20017;-44
2021/06/08 02:54:52;;;;;;;;;;;;;;;;;;3553285;27;19927;-43
2021/06/08 02:56:34;;;;;;;;;;;;;;;;;;3556003;27;19927;-45
2021/06/08 02:58:14;;;;;;;;;;;;;;;;;;3553135;27;19981;-46
2021/06/08 03:00:02;;;;;;;;;;;;;;;;;;3554463;27;20537;-43
2021/06/08 03:01:43;;;;;;;;;;;;;;;;;;3553271;27;19926;-44
2021/06/08 03:03:23;;;;;;;;;;;;;;;;;;3554475;27;20291;-44
2021/06/08 03:05:04;;;;;;;;;;;;;;;;;;3555836;27;20431;-43
2021/06/08 03:06:45;;;;;;;;;;;;;;;;;;3553030;27;19972;-44
2021/06/08 03:08:26;;;;;;;;;;;;;;;;;;3555662;27;19934;-44
2021/06/08 03:10:07;;;;;;;;;;;;;;;;;;3552737;27;20029;-43
2021/06/08 03:11:48;;;;;;;;;;;;;;;;;;3555298;27;20025;-43
2021/06/08 03:13:29;;;;;;;;;;;;;;;;;;3555885;27;19933;-44
2021/06/08 03:15:10;;;;;;;;;;;;;;;;;;3554925;27;19938;-43
2021/06/08 03:16:51;;;;;;;;;;;;;;;;;;3554841;27;19931;-43
2021/06/08 03:18:32;;;;;;;;;;;;;;;;;;3553405;27;19970;-43
2021/06/08 03:20:13;;;;;;;;;;;;;;;;;;3555827;27;19927;-44
2021/06/08 03:21:54;;;;;;;;;;;;;;;;;;3553082;27;19931;-45
2021/06/08 03:23:35;;;;;;;;;;;;;;;;;;3554016;27;20276;-43
2021/06/08 03:25:16;;;;;;;;;;;;;;;;;;3552835;27;19931;-43
2021/06/08 03:26:57;;;;;;;;;;;;;;;;;;3555116;27;20358;-44
2021/06/08 03:28:38;;;;;;;;;;;;;;;;;;3553920;27;20026;-43
2021/06/08 03:30:19;;;;;;;;;;;;;;;;;;3553997;27;19972;-43
2021/06/08 03:32:00;;;;;;;;;;;;;;;;;;3552872;27;19927;-43
2021/06/08 03:33:41;;;;;;;;;;;;;;;;;;3552392;27;19927;-44
2021/06/08 03:35:22;;;;;;;;;;;;;;;;;;3555159;27;19950;-44
2021/06/08 03:37:03;;;;;;;;;;;;;;;;;;3553203;27;20030;-44
2021/06/08 03:38:43;;;;;;;;;;;;;;;;;;3552542;27;19934;-43
2021/06/08 03:40:24;;;;;;;;;;;;;;;;;;3553352;27;19927;-44
2021/06/08 03:42:05;;;;;;;;;;;;;;;;;;3553640;27;20371;-47
2021/06/08 03:43:46;;;;;;;;;;;;;;;;;;3554453;27;20335;-45
2021/06/08 03:45:27;;;;;;;;;;;;;;;;;;3552390;27;19927;-45
2021/06/08 03:47:08;;;;;;;;;;;;;;;;;;3555158;27;19927;-48
2021/06/08 03:48:49;;;;;;;;;;;;;;;;;;3553053;27;20376;-43
2021/06/08 03:50:34;;;;;;;;;;;;;;;;;;3552553;27;20471;-43
2021/06/08 03:52:15;;;;;;;;;;;;;;;;;;3552748;27;19927;-44
2021/06/08 03:53:56;;;;;;;;;;;;;;;;;;3555830;27;20027;-44
2021/06/08 03:55:37;;;;;;;;;;;;;;;;;;3552847;27;19950;-44
2021/06/08 03:57:19;;;;;;;;;;;;;;;;;;3552823;27;19934;-45
2021/06/08 03:59:00;;;;;;;;;;;;;;;;;;3554986;27;19974;-43
2021/06/08 04:00:41;;;;;;;;;;;;;;;;;;3553000;27;19927;-45
2021/06/08 04:02:21;;;;;;;;;;;;;;;;;;3554191;27;19962;-47
2021/06/08 04:04:02;;;;;;;;;;;;;;;;;;3555001;27;20034;-45
2021/06/08 04:05:43;;;;;;;;;;;;;;;;;;3556289;27;19970;-45
2021/06/08 04:07:24;;;;;;;;;;;;;;;;;;3557749;27;19934;-45
2021/06/08 04:09:05;;;;;;;;;;;;;;;;;;3554827;27;20038;-46
2021/06/08 04:10:46;;;;;;;;;;;;;;;;;;3557406;27;19980;-46
2021/06/08 04:12:27;;;;;;;;;;;;;;;;;;3554950;27;19930;-43
2021/06/08 04:14:08;;;;;;;;;;;;;;;;;;3554486;27;20391;-44
2021/06/08 04:15:49;;;;;;;;;;;;;;;;;;3554683;27;19974;-43
2021/06/08 04:17:30;;;;;;;;;;;;;;;;;;3557210;27;19927;-43
2021/06/08 04:19:12;;;;;;;;;;;;;;;;;;3556590;27;19974;-44
2021/06/08 04:20:52;;;;;;;;;;;;;;;;;;3555279;27;19927;-43
2021/06/08 04:22:33;;;;;;;;;;;;;;;;;;3556516;27;19962;-47
2021/06/08 04:24:14;;;;;;;;;;;;;;;;;;3554421;27;19927;-48
2021/06/08 04:25:55;;;;;;;;;;;;;;;;;;3557634;27;19927;-43
2021/06/08 04:27:36;;;;;;;;;;;;;;;;;;3554988;27;19976;-46
2021/06/08 04:29:17;;;;;;;;;;;;;;;;;;3555776;27;19972;-45
2021/06/08 04:30:58;;;;;;;;;;;;;;;;;;3554715;27;19927;-46
2021/06/08 04:32:39;;;;;;;;;;;;;;;;;;3555713;27;20018;-47
2021/06/08 04:34:20;;;;;;;;;;;;;;;;;;3556081;27;19934;-44
2021/06/08 04:36:01;;;;;;;;;;;;;;;;;;3554534;27;19962;-46
2021/06/08 04:37:41;;;;;;;;;;;;;;;;;;3556925;27;20009;-47
2021/06/08 04:39:22;;;;;;;;;;;;;;;;;;3554764;27;20021;-46
2021/06/08 04:41:03;;;;;;;;;;;;;;;;;;3555786;27;20419;-46
2021/06/08 04:42:44;;;;;;;;;;;;;;;;;;3554051;27;19927;-45
2021/06/08 04:44:25;;;;;;;;;;;;;;;;;;3556674;27;20026;-47
2021/06/08 04:46:06;;;;;;;;;;;;;;;;;;3555647;27;20009;-45
2021/06/08 04:47:47;;;;;;;;;;;;;;;;;;3554155;27;19970;-46
2021/06/08 04:49:28;;;;;;;;;;;;;;;;;;3555769;27;19927;-45
2021/06/08 04:51:09;;;;;;;;;;;;;;;;;;3554484;27;19938;-45
2021/06/08 04:52:56;;;;;;;;;;;;;;;;;;3556876;27;20027;-45
2021/06/08 04:54:37;;;;;;;;;;;;;;;;;;3555023;27;19970;-45
2021/06/08 04:56:18;;;;;;;;;;;;;;;;;;3556010;27;19977;-45
2021/06/08 04:57:58;;;;;;;;;;;;;;;;;;3557220;27;19926;-48
2021/06/08 04:59:39;;;;;;;;;;;;;;;;;;3553988;27;20030;-47
2021/06/08 05:01:20;;;;;;;;;;;;;;;;;;3556668;27;20396;-45
2021/06/08 05:03:01;;;;;;;;;;;;;;;;;;3554646;27;19966;-45
2021/06/08 05:04:42;;;;;;;;;;;;;;;;;;3556931;27;19927;-45
2021/06/08 05:06:23;;;;;;;;;;;;;;;;;;3554363;27;20400;-47
2021/06/08 05:08:04;;;;;;;;;;;;;;;;;;3555798;27;19969;-49
2021/06/08 05:09:45;;;;;;;;;;;;;;;;;;3554805;27;20010;-44
2021/06/08 05:11:26;;;;;;;;;;;;;;;;;;3554568;27;19931;-45
2021/06/08 05:13:07;;;;;;;;;;;;;;;;;;3555672;27;19922;-44
2021/06/08 05:14:48;;;;;;;;;;;;;;;;;;3567997;27;19926;-45
2021/06/08 05:16:29;;;;;;;;;;;;;;;;;;3558050;27;19971;-48
2021/06/08 05:18:10;;;;;;;;;;;;;;;;;;3554683;27;19966;-45
2021/06/08 05:19:51;;;;;;;;;;;;;;;;;;3556526;27;19927;-44
2021/06/08 05:21:32;;;;;;;;;;;;;;;;;;3556489;27;20013;-46
2021/06/08 05:23:13;;;;;;;;;;;;;;;;;;3554459;27;19927;-47
2021/06/08 05:24:54;;;;;;;;;;;;;;;;;;3556965;27;19987;-49
2021/06/08 05:26:35;;;;;;;;;;;;;;;;;;3553756;27;19933;-46
2021/06/08 05:28:16;;;;;;;;;;;;;;;;;;3555663;27;19968;-44
2021/06/08 05:29:57;;;;;;;;;;;;;;;;;;3554507;27;19938;-45
2021/06/08 05:31:38;;;;;;;;;;;;;;;;;;3556519;27;20384;-46
2021/06/08 05:33:19;;;;;;;;;;;;;;;;;;3555707;27;19991;-47
2021/06/08 05:35:00;;;;;;;;;;;;;;;;;;3554595;27;19985;-45
2021/06/08 05:36:41;;;;;;;;;;;;;;;;;;3556567;27;20030;-45
2021/06/08 05:38:22;;;;;;;;;;;;;;;;;;3553700;27;19974;-46
2021/06/08 05:40:03;;;;;;;;;;;;;;;;;;3555883;27;19965;-45
2021/06/08 05:41:44;;;;;;;;;;;;;;;;;;3554452;27;20387;-45
2021/06/08 05:43:25;;;;;;;;;;;;;;;;;;3555465;27;19927;-46
2021/06/08 05:45:06;;;;;;;;;;;;;;;;;;3554730;27;20017;-47
2021/06/08 05:46:47;;;;;;;;;;;;;;;;;;3555837;27;20083;-47
2021/06/08 05:48:28;;;;;;;;;;;;;;;;;;3555858;27;20009;-45
2021/06/08 05:50:09;;;;;;;;;;;;;;;;;;3553802;27;19934;-48
2021/06/08 05:51:50;;;;;;;;;;;;;;;;;;3556622;27;20014;-49
2021/06/08 05:53:32;;;;;;;;;;;;;;;;;;3554759;27;19971;-47
2021/06/08 05:55:12;;;;;;;;;;;;;;;;;;3556786;27;19952;-48
2021/06/08 05:56:53;;;;;;;;;;;;;;;;;;3554306;27;19996;-47
2021/06/08 05:58:34;;;;;;;;;;;;;;;;;;3555950;27;20528;-46
2021/06/08 06:00:15;;;;;;;;;;;;;;;;;;3557387;27;19977;-47
2021/06/08 06:01:56;;;;;;;;;;;;;;;;;;3553767;27;19930;-49
2021/06/08 06:03:37;;;;;;;;;;;;;;;;;;3554936;27;19931;-46
2021/06/08 06:05:18;;;;;;;;;;;;;;;;;;3553916;27;20025;-48
2021/06/08 06:06:59;;;;;;;;;;;;;;;;;;3554742;27;19962;-46
2021/06/08 06:08:40;;;;;;;;;;;;;;;;;;3553768;27;19934;-47
2021/06/08 06:10:22;;;;;;;;;;;;;;;;;;3555923;27;19971;-47
2021/06/08 06:12:02;;;;;;;;;;;;;;;;;;3556832;27;19933;-45
2021/06/08 06:13:45;;;;;;;;;;;;;;;;;;3559013;27;19962;-49
2021/06/08 06:15:26;;;;;;;;;;;;;;;;;;3564171;27;19931;-45
2021/06/08 06:17:07;;;;;;;;;;;;;;;;;;3558334;27;20306;-46
2021/06/08 06:18:49;;;;;;;;;;;;;;;;;;3557984;27;20539;-45
2021/06/08 06:20:29;;;;;;;;;;;;;;;;;;3553939;27;20071;-45
2021/06/08 06:22:10;;;;;;;;;;;;;;;;;;3555914;27;19934;-45
2021/06/08 06:23:51;;;;;;;;;;;;;;;;;;3556057;27;20302;-47
2021/06/08 06:25:32;;;;;;;;;;;;;;;;;;3553568;27;19962;-45
2021/06/08 06:27:13;;;;;;;;;;;;;;;;;;3553847;27;19927;-44
2021/06/08 06:28:54;;;;;;;;;;;;;;;;;;3553343;27;19949;-44
2021/06/08 06:30:35;;;;;;;;;;;;;;;;;;3555642;27;20021;-46
2021/06/08 06:32:16;;;;;;;;;;;;;;;;;;3552995;27;19966;-48
2021/06/08 06:33:57;;;;;;;;;;;;;;;;;;3553712;27;19931;-48
2021/06/08 06:35:38;;;;;;;;;;;;;;;;;;3556524;27;20029;-46
2021/06/08 06:37:19;;;;;;;;;;;;;;;;;;3552964;27;20025;-47
2021/06/08 06:39:00;;;;;;;;;;;;;;;;;;3555639;27;19931;-46
2021/06/08 06:40:41;;;;;;;;;;;;;;;;;;3553191;27;19927;-51
2021/06/08 06:42:22;;;;;;;;;;;;;;;;;;3553289;27;19927;-47
2021/06/08 06:44:03;;;;;;;;;;;;;;;;;;3553694;27;19931;-46
2021/06/08 06:45:44;;;;;;;;;;;;;;;;;;3554236;27;19950;-48
2021/06/08 06:47:25;;;;;;;;;;;;;;;;;;3553967;27;19954;-48
2021/06/08 06:49:06;;;;;;;;;;;;;;;;;;3553937;27;20037;-47
2021/06/08 06:50:47;;;;;;;;;;;;;;;;;;3555592;27;19931;-46
2021/06/08 06:52:28;;;;;;;;;;;;;;;;;;3553490;27;19970;-47
2021/06/08 06:54:09;;;;;;;;;;;;;;;;;;3554022;27;20299;-44
2021/06/08 06:55:50;;;;;;;;;;;;;;;;;;3553599;27;19927;-45
2021/06/08 06:57:31;;;;;;;;;;;;;;;;;;3554286;27;20427;-45
2021/06/08 06:59:12;;;;;;;;;;;;;;;;;;3555661;27;20017;-45
2021/06/08 07:00:57;;;;;;;;;;;;;;;;;;3554964;27;19933;-47
2021/06/08 07:02:38;;;;;;;;;;;;;;;;;;3555297;27;20021;-47
2021/06/08 07:04:19;;;;;;;;;;;;;;;;;;3553043;27;19934;-45
2021/06/08 07:06:00;;;;;;;;;;;;;;;;;;3555408;27;19927;-46
2021/06/08 07:07:41;;;;;;;;;;;;;;;;;;3553043;27;20362;-45
2021/06/08 07:09:23;;;;;;;;;;;;;;;;;;3554320;27;19927;-44
2021/06/08 07:11:04;;;;;;;;;;;;;;;;;;3554309;27;19950;-44
2021/06/08 07:12:45;;;;;;;;;;;;;;;;;;3553089;27;19931;-43
2021/06/08 07:14:27;;;;;;;;;;;;;;;;;;3554262;27;19931;-45
2021/06/08 07:16:08;;;;;;;;;;;;;;;;;;3552842;27;19977;-46
2021/06/08 07:17:49;;;;;;;;;;;;;;;;;;3554732;27;19975;-44
2021/06/08 07:19:30;;;;;;;;;;;;;;;;;;3553138;27;19927;-46
2021/06/08 07:21:11;;;;;;;;;;;;;;;;;;3555750;27;19927;-45
2021/06/08 07:22:52;;;;;;;;;;;;;;;;;;3553539;27;19927;-44
2021/06/08 07:24:33;;;;;;;;;;;;;;;;;;3554672;27;19950;-45
2021/06/08 07:26:17;;;;;;;;;;;;;;;;;;3555610;27;19965;-44
2021/06/08 07:27:57;;;;;;;;;;;;;;;;;;3555514;27;19967;-44
2021/06/08 07:29:38;;;;;;;;;;;;;;;;;;3562496;27;19927;-47
2021/06/08 07:31:19;;;;;;;;;;;;;;;;;;3567588;27;20366;-46
2021/06/08 07:33:00;;;;;;;;;;;;;;;;;;3554760;27;19927;-44
2021/06/08 07:34:43;;;;;;;;;;;;;;;;;;3554823;27;19927;-45
2021/06/08 07:36:26;;;;;;;;;;;;;;;;;;3552220;27;19942;-47
2021/06/08 07:38:08;;;;;;;;;;;;;;;;;;3554831;27;20375;-46
2021/06/08 07:39:49;;;;;;;;;;;;;;;;;;3555693;27;19966;-48
2021/06/08 07:41:30;;;;;;;;;;;;;;;;;;3555696;27;20344;-45
2021/06/08 07:43:11;;;;;;;;;;;;;;;;;;3555915;27;19933;-47
2021/06/08 07:44:52;;;;;;;;;;;;;;;;;;3558020;27;20047;-45
2021/06/08 07:46:32;;;;;;;;;;;;;;;;;;3557456;27;20399;-46
2021/06/08 07:48:13;;;;;;;;;;;;;;;;;;3555925;27;20033;-46
2021/06/08 07:49:54;;;;;;;;;;;;;;;;;;3557875;27;20391;-45
2021/06/08 07:51:35;;;;;;;;;;;;;;;;;;3555389;27;19970;-45
2021/06/08 07:53:17;;;;;;;;;;;;;;;;;;3556538;27;20022;-44
2021/06/08 07:54:58;;;;;;;;;;;;;;;;;;3555344;27;20463;-44
2021/06/08 07:56:40;;;;;;;;;;;;;;;;;;3556346;27;19988;-45
2021/06/08 07:58:22;;;;;;;;;;;;;;;;;;3555169;27;20014;-46
2021/06/08 08:00:04;;;;;;;;;;;;;;;;;;3556170;27;19927;-46
2021/06/08 08:01:45;;;;;;;;;;;;;;;;;;3556209;27;19977;-44
2021/06/08 08:03:26;;;;;;;;;;;;;;;;;;3555147;27;19927;-43
2021/06/08 08:05:09;;;;;;;;;;;;;;;;;;3557344;27;19983;-46
2021/06/08 08:06:50;;;;;;;;;;;;;;;;;;3555191;27;19927;-45
2021/06/08 08:08:31;;;;;;;;;;;;;;;;;;3557586;27;20487;-44
2021/06/08 08:10:12;;;;;;;;;;;;;;;;;;3554056;27;19950;-44
2021/06/08 08:11:53;;;;;;;;;;;;;;;;;;3556769;27;19927;-44
2021/06/08 08:13:34;;;;;;;;;;;;;;;;;;3556176;27;20318;-45
2021/06/08 08:15:15;;;;;;;;;;;;;;;;;;3555719;27;19970;-47
2021/06/08 08:16:57;;;;;;;;;;;;;;;;;;3556568;27;19975;-44
2021/06/08 08:18:38;;;;;;;;;;;;;;;;;;3554968;27;20398;-45
2021/06/08 08:20:20;;;;;;;;;;;;;;;;;;3556316;27;19934;-46
2021/06/08 08:22:01;;;;;;;;;;;;;;;;;;3557279;27;20017;-45
2021/06/08 08:23:42;;;;;;;;;;;;;;;;;;3554735;27;19927;-46
2021/06/08 08:25:23;;;;;;;;;;;;;;;;;;3556713;27;19927;-44
2021/06/08 08:27:04;;;;;;;;;;;;;;;;;;3555696;27;19975;-44
2021/06/08 08:28:47;;;;;;;;;;;;;;;;;;3557440;27;20380;-44
2021/06/08 08:30:28;;;;;;;;;;;;;;;;;;3555077;27;19976;-43
2021/06/08 08:32:09;;;;;;;;;;;;;;;;;;3556194;27;19948;-44
2021/06/08 08:33:50;;;;;;;;;;;;;;;;;;3557068;27;20023;-45
2021/06/08 08:35:31;;;;;;;;;;;;;;;;;;3554929;27;19927;-48
2021/06/08 08:37:12;;;;;;;;;;;;;;;;;;3556935;27;20358;-45
2021/06/08 08:38:53;;;;;;;;;;;;;;;;;;3554638;27;20055;-46
2021/06/08 08:40:34;;;;;;;;;;;;;;;;;;3555057;27;19972;-45
2021/06/08 08:42:15;;;;;;;;;;;;;;;;;;3554522;27;19926;-46
2021/06/08 08:43:56;;;;;;;;;;;;;;;;;;3557442;27;19931;-45
2021/06/08 08:45:36;;;;;;;;;;;;;;;;;;3556418;27;20395;-43
2021/06/08 08:47:17;;;;;;;;;;;;;;;;;;3555834;27;19938;-45
2021/06/08 08:48:58;;;;;;;;;;;;;;;;;;3557097;27;19931;-46
2021/06/08 08:50:39;;;;;;;;;;;;;;;;;;3553809;27;20026;-44
2021/06/08 08:52:20;;;;;;;;;;;;;;;;;;3557202;27;19984;-45
2021/06/08 08:54:01;;;;;;;;;;;;;;;;;;3554977;27;19927;-43
2021/06/08 08:55:44;;;;;;;;;;;;;;;;;;3555033;27;19927;-45
2021/06/08 08:57:26;;;;;;;;;;;;;;;;;;3555805;27;19978;-46
2021/06/08 08:59:07;;;;;;;;;;;;;;;;;;3555440;27;19977;-44
2021/06/08 09:00:48;;;;;;;;;;;;;;;;;;3554551;27;19974;-44
2021/06/08 09:02:29;;;;;;;;;;;;;;;;;;3554361;27;20295;-44
2021/06/08 09:04:10;;;;;;;;;;;;;;;;;;3557122;27;19934;-44
2021/06/08 09:05:51;;;;;;;;;;;;;;;;;;3558825;27;20021;-44
2021/06/08 09:07:32;;;;;;;;;;;;;;;;;;3559371;27;19931;-46
2021/06/08 09:09:12;;;;;;;;;;;;;;;;;;3555447;27;20494;-44
2021/06/08 09:10:53;;;;;;;;;;;;;;;;;;3556167;27;20128;-45
2021/06/08 09:12:35;;;;;;;;;;;;;;;;;;3557488;27;19980;-46
2021/06/08 09:14:16;;;;;;;;;;;;;;;;;;3563965;27;19926;-44
2021/06/08 09:15:57;;;;;;;;;;;;;;;;;;3562464;27;19934;-44
2021/06/08 09:17:39;;;;;;;;;;;;;;;;;;3554322;27;19979;-45
2021/06/08 09:19:20;;;;;;;;;;;;;;;;;;3557254;27;19927;-44
2021/06/08 09:21:01;;;;;;;;;;;;;;;;;;3554658;27;19927;-45
2021/06/08 09:22:42;;;;;;;;;;;;;;;;;;3555066;27;20392;-44
2021/06/08 09:24:23;;;;;;;;;;;;;;;;;;3557425;27;19933;-44
2021/06/08 09:26:04;;;;;;;;;;;;;;;;;;3553932;27;19979;-45
2021/06/08 09:27:45;;;;;;;;;;;;;;;;;;3556515;27;19939;-44
2021/06/08 09:29:26;;;;;;;;;;;;;;;;;;3554600;27;19927;-46
2021/06/08 09:31:07;;;;;;;;;;;;;;;;;;3555197;27;20367;-46
2021/06/08 09:32:48;;;;;;;;;;;;;;;;;;3554156;27;19973;-45
2021/06/08 09:34:29;;;;;;;;;;;;;;;;;;3555897;27;20388;-45
2021/06/08 09:36:10;;;;;;;;;;;;;;;;;;3554994;27;19927;-45
2021/06/08 09:37:51;;;;;;;;;;;;;;;;;;3553925;27;19974;-45
2021/06/08 09:39:31;;;;;;;;;;;;;;;;;;3557188;27;20380;-45
2021/06/08 09:41:12;;;;;;;;;;;;;;;;;;3553906;27;19927;-46
2021/06/08 09:42:53;;;;;;;;;;;;;;;;;;3553884;27;19933;-44
2021/06/08 09:44:35;;;;;;;;;;;;;;;;;;3554313;27;20368;-46
2021/06/08 09:46:16;;;;;;;;;;;;;;;;;;3556271;27;20022;-51
2021/06/08 09:47:57;;;;;;;;;;;;;;;;;;3554081;27;20081;-46
2021/06/08 09:49:38;;;;;;;;;;;;;;;;;;3553249;27;20483;-45
2021/06/08 09:51:19;;;;;;;;;;;;;;;;;;3554980;27;19927;-45
2021/06/08 09:53:00;;;;;;;;;;;;;;;;;;3553878;27;19934;-44
2021/06/08 09:54:41;;;;;;;;;;;;;;;;;;3556098;27;19974;-44
2021/06/08 09:56:22;;;;;;;;;;;;;;;;;;3553801;27;20348;-44
2021/06/08 09:58:02;;;;;;;;;;;;;;;;;;3554583;27;19931;-44
2021/06/08 09:59:43;;;;;;;;;;;;;;;;;;3553516;27;19934;-44
2021/06/08 10:01:26;;;;;;;;;;;;;;;;;;3553508;27;19974;-43
2021/06/08 10:03:07;;;;;;;;;;;;;;;;;;3563159;27;19930;-44
2021/06/08 10:04:48;;;;;;;;;;;;;;;;;;3553538;27;19931;-44
2021/06/08 10:06:29;;;;;;;;;;;;;;;;;;3556105;27;20391;-43
2021/06/08 10:08:10;;;;;;;;;;;;;;;;;;3553591;27;20026;-43
2021/06/08 10:09:51;;;;;;;;;;;;;;;;;;3555153;27;19934;-47
2021/06/08 10:11:32;;;;;;;;;;;;;;;;;;3554379;27;20025;-46
2021/06/08 10:13:14;;;;;;;;;;;;;;;;;;3554673;27;20353;-46
2021/06/08 10:14:55;;;;;;;;;;;;;;;;;;3564335;27;20406;-47
2021/06/08 10:16:37;;;;;;;;;;;;;;;;;;3553204;27;19934;-48
2021/06/08 10:18:18;;;;;;;;;;;;;;;;;;3555178;27;20940;-46
2021/06/08 10:19:59;;;;;;;;;;;;;;;;;;3553592;27;20316;-47
2021/06/08 10:21:40;;;;;;;;;;;;;;;;;;3555692;27;19926;-46
2021/06/08 10:23:20;;;;;;;;;;;;;;;;;;3554123;27;19934;-46
2021/06/08 10:25:03;;;;;;;;;;;;;;;;;;3554542;27;20383;-44
2021/06/08 10:26:45;;;;;;;;;;;;;;;;;;3554944;27;20387;-44
2021/06/08 10:28:26;;;;;;;;;;;;;;;;;;3553096;27;19927;-44
2021/06/08 10:30:08;;;;;;;;;;;;;;;;;;3555692;27;19931;-44
2021/06/08 10:31:49;;;;;;;;;;;;;;;;;;3553317;27;19931;-45
2021/06/08 10:33:48;;;;;;;;;;;;;;;;;;3556059;27;19938;-44
2021/06/08 10:35:36;;;;;;;;;;;;;;;;;;3554704;27;19996;-45
2021/06/08 10:37:17;;;;;;;;;;;;;;;;;;3553349;27;20303;-47
2021/06/08 10:38:58;;;;;;;;;;;;;;;;;;3554816;27;20014;-44
2021/06/08 10:40:39;;;;;;;;;;;;;;;;;;3553772;27;19927;-45
2021/06/08 10:42:20;;;;;;;;;;;;;;;;;;3556191;27;19927;-44
2021/06/08 10:44:01;;;;;;;;;;;;;;;;;;3554943;27;19953;-46
2021/06/08 10:45:42;;;;;;;;;;;;;;;;;;3553984;27;20026;-46
2021/06/08 10:47:31;;;;;;;;;;;;;;;;;;3556609;27;19927;-45
2021/06/08 10:49:12;;;;;;;;;;;;;;;;;;3553643;27;19989;-47
2021/06/08 10:50:53;;;;;;;;;;;;;;;;;;3554717;27;19927;-45
2021/06/08 10:52:37;;;;;;;;;;;;;;;;;;3553076;27;19927;-48
2021/06/08 10:54:18;;;;;;;;;;;;;;;;;;3556259;27;19951;-45
2021/06/08 10:55:59;;;;;;;;;;;;;;;;;;3555105;27;20379;-46
2021/06/08 10:57:40;;;;;;;;;;;;;;;;;;3552638;27;19927;-45
2021/06/08 10:59:21;;;;;;;;;;;;;;;;;;3560920;27;20383;-46
2021/06/08 11:01:02;;;;;;;;;;;;;;;;;;3553030;27;19934;-47
2021/06/08 11:02:43;;;;;;;;;;;;;;;;;;3555972;27;19973;-44
2021/06/08 11:04:28;;;;;;;;;;;;;;;;;;3553643;27;20357;-45
2021/06/08 11:06:09;;;;;;;;;;;;;;;;;;3553931;27;19982;-46
2021/06/08 11:07:50;;;;;;;;;;;;;;;;;;3554660;27;19962;-45
2021/06/08 11:09:32;;;;;;;;;;;;;;;;;;3553044;27;20116;-45
2021/06/08 11:11:13;;;;;;;;;;;;;;;;;;3556275;27;20276;-44
2021/06/08 11:13:07;;;;;;;;;;;;;;;;;;3553634;27;20351;-44
2021/06/08 11:14:55;;;;;;;;;;;;;;;;;;3558314;27;19934;-44
2021/06/08 11:16:37;;;;;;;;;;;;;;;;;;3555260;27;19978;-44
2021/06/08 11:18:18;;;;;;;;;;;;;;;;;;3557191;27;19931;-45
2021/06/08 11:19:59;;;;;;;;;;;;;;;;;;3556647;27;20035;-44
2021/06/08 11:21:40;;;;;;;;;;;;;;;;;;3555137;27;19927;-44
2021/06/08 11:23:21;;;;;;;;;;;;;;;;;;3557051;27;19934;-45
2021/06/08 11:25:02;;;;;;;;;;;;;;;;;;3555351;27;20309;-46
2021/06/08 11:26:43;;;;;;;;;;;;;;;;;;3556190;27;19927;-44
2021/06/08 11:28:24;;;;;;;;;;;;;;;;;;3556401;27;19927;-46
2021/06/08 11:30:05;;;;;;;;;;;;;;;;;;3556230;27;19934;-46
2021/06/08 11:31:46;;;;;;;;;;;;;;;;;;3557135;27;20021;-44